Terminal Aerodrome Forecast
Issued by NWS Sterling, VA

Current Version | Previous Version | Graphics & Text | Print | Product List | Glossary On
Versions: 1 2 3 4 5 6 7 8 9 10 11 12 13 14 15 16 17 18 19 20 21 22 23
000
FTUS41 KLWX 211315 AAA
TAFDCA
TAF AMD
KDCA 211315Z 2113/2212 08005KT P6SM BKN200
     FM211600 14005KT P6SM SCT050 BKN200
     FM221100 20004KT P6SM OVC130=

USA.gov is the U.S. government's official web portal to all federal, state and local government web resources and services.